Time;durP1;ratioP1;P1;durP2;ratioP2;P2;SDS_P1;SDS_P2;PMS_P1;PMS_P2;Temp;Humidity;BMP_temperature;BMP_pressure;BME280_temperature;BME280_humidity;BME280_pressure;Samples;Min_cycle;Max_cycle;Signal;HPM_P1;HPM_P2
2022/12/25 00:02:05;;;;;;;;;;;;;;;28.05;23.59;100675.53;5058998;28;1187;-12
2022/12/25 00:04:30;;;;;;;;;;;;;;;27.88;24.22;100683.88;5067305;28;1016;-12
2022/12/25 00:06:55;;;;;;;;;;;;;;;28.10;24.09;100694.72;5060427;28;1183;-12
2022/12/25 00:09:21;;;;;;;;;;;;;;;28.16;23.81;100699.38;5067959;28;896;-12
2022/12/25 00:11:46;;;;;;;;;;;;;;;28.37;23.46;100705.88;5058935;28;1052;-12
2022/12/25 00:14:11;;;;;;;;;;;;;;;28.24;23.97;100714.66;5067732;28;1112;-12
2022/12/25 00:16:37;;;;;;;;;;;;;;;27.98;23.71;100719.56;5060121;28;1371;-12
2022/12/25 00:19:02;;;;;;;;;;;;;;;27.95;23.93;100724.50;5076533;28;1910;-12
2022/12/25 00:21:27;;;;;;;;;;;;;;;27.84;24.38;100737.47;5075692;28;1123;-12
2022/12/25 00:23:53;;;;;;;;;;;;;;;27.98;24.13;100732.22;5076381;28;1043;-12
2022/12/25 00:26:18;;;;;;;;;;;;;;;28.13;24.11;100743.00;5076187;28;1064;-12
2022/12/25 00:28:44;;;;;;;;;;;;;;;28.51;23.43;100746.59;5068976;28;1131;-12
2022/12/25 00:31:10;;;;;;;;;;;;;;;28.47;23.30;100746.97;5065785;28;1223;-12
2022/12/25 00:33:35;;;;;;;;;;;;;;;28.52;23.55;100753.66;5074087;28;1345;-12
2022/12/25 00:36:01;;;;;;;;;;;;;;;28.06;24.27;100744.81;5076259;28;1187;-12
2022/12/25 00:38:26;;;;;;;;;;;;;;;27.68;24.68;100738.50;5073267;28;1310;-12
2022/12/25 00:40:51;;;;;;;;;;;;;;;27.55;25.12;100744.56;5075579;28;1893;-12
2022/12/25 00:43:17;;;;;;;;;;;;;;;27.43;25.50;100751.41;5075622;28;1324;-12
2022/12/25 00:45:42;;;;;;;;;;;;;;;27.47;25.50;100736.53;5076368;28;1016;-12
2022/12/25 00:48:07;;;;;;;;;;;;;;;28.11;24.53;100739.69;5071398;28;1163;-12
2022/12/25 00:50:33;;;;;;;;;;;;;;;28.53;23.88;100744.53;5076481;28;1039;-12
2022/12/25 00:52:58;;;;;;;;;;;;;;;28.60;23.96;100734.59;5056380;28;1016;-12
2022/12/25 00:55:23;;;;;;;;;;;;;;;28.01;24.71;100733.72;5068739;28;1219;-12
2022/12/25 00:57:49;;;;;;;;;;;;;;;28.11;24.71;100734.28;5063283;28;1087;-12
2022/12/25 01:00:14;;;;;;;;;;;;;;;28.57;23.75;100732.28;5076475;28;1893;-12
2022/12/25 01:02:40;;;;;;;;;;;;;;;28.62;23.82;100737.94;5056778;28;1172;-12
2022/12/25 01:05:05;;;;;;;;;;;;;;;28.22;24.32;100743.75;5057285;28;1113;-12
2022/12/25 01:07:30;;;;;;;;;;;;;;;27.72;25.19;100745.25;5062944;28;1118;-12
2022/12/25 01:12:40;;;;;;;;;;;;;;;27.99;24.79;100747.44;5064694;28;988;-12
2022/12/25 01:15:06;;;;;;;;;;;;;;;27.80;25.45;100747.00;5061081;28;1039;-12
2022/12/25 01:17:31;;;;;;;;;;;;;;;28.16;24.65;100747.22;5060437;28;1299;-12
2022/12/25 01:19:56;;;;;;;;;;;;;;;28.79;23.71;100756.63;5060194;28;1965;-12
2022/12/25 01:22:22;;;;;;;;;;;;;;;28.40;24.65;100754.16;5059892;28;869;-12
2022/12/25 01:24:47;;;;;;;;;;;;;;;28.30;24.71;100751.75;5074741;28;1116;-13
2022/12/25 01:27:12;;;;;;;;;;;;;;;28.16;24.86;100747.22;5079540;28;1067;-12
2022/12/25 01:29:38;;;;;;;;;;;;;;;28.48;24.58;100748.63;5067058;28;1199;-12
2022/12/25 01:32:03;;;;;;;;;;;;;;;28.68;24.12;100747.16;5080252;28;1159;-13
2022/12/25 01:34:28;;;;;;;;;;;;;;;28.67;24.08;100742.78;5065689;28;1573;-12
2022/12/25 01:36:54;;;;;;;;;;;;;;;27.96;25.21;100739.72;5079608;28;1115;-12
2022/12/25 01:39:19;;;;;;;;;;;;;;;28.01;25.17;100744.56;5065133;28;1897;-12
2022/12/25 01:41:44;;;;;;;;;;;;;;;27.99;25.30;100744.75;5059793;28;1072;-12
2022/12/25 01:44:13;;;;;;;;;;;;;;;28.03;25.18;100746.03;5061532;28;1279;-12
2022/12/25 01:46:38;;;;;;;;;;;;;;;28.60;24.16;100750.81;5079009;28;890;-12
2022/12/25 01:49:12;;;;;;;;;;;;;;;28.89;24.07;100762.56;5078358;28;1012;-12
2022/12/25 01:51:41;;;;;;;;;;;;;;;28.40;24.62;100756.88;5068495;28;1012;-12
2022/12/25 01:54:08;;;;;;;;;;;;;;;28.31;24.64;100744.47;5059148;28;1502;-12
2022/12/25 01:56:33;;;;;;;;;;;;;;;28.64;24.32;100751.28;5046310;28;1060;-12
2022/12/25 01:58:58;;;;;;;;;;;;;;;28.97;23.66;100761.59;5065941;28;1906;-12
2022/12/25 02:01:24;;;;;;;;;;;;;;;28.72;24.04;100759.28;5079210;28;1030;-12
2022/12/25 02:03:50;;;;;;;;;;;;;;;27.90;25.19;100762.06;5045235;28;1116;-12
2022/12/25 02:06:15;;;;;;;;;;;;;;;27.93;25.49;100759.00;5050929;28;1148;-12
2022/12/25 02:08:40;;;;;;;;;;;;;;;27.94;25.22;100763.38;5076332;28;1079;-12
2022/12/25 02:11:55;;;;;;;;;;;;;;;27.96;25.67;100766.75;5059724;28;888;-12
2022/12/25 02:13:52;;;;;;;;;;;;;;;28.82;24.16;100767.91;5078632;28;1502;-12
2022/12/25 02:16:18;;;;;;;;;;;;;;;28.76;24.19;100774.09;5048686;28;1279;-12
2022/12/25 02:18:48;;;;;;;;;;;;;;;28.41;25.02;100777.47;5054583;28;1968;-12
2022/12/25 02:21:29;;;;;;;;;;;;;;;28.41;24.89;100784.78;5041086;28;1064;-12
2022/12/25 02:24:09;;;;;;;;;;;;;;;28.77;24.22;100780.34;5040927;28;1028;-12
2022/12/25 02:26:35;;;;;;;;;;;;;;;28.95;23.93;100786.16;5071459;28;1160;-12
2022/12/25 02:29:19;;;;;;;;;;;;;;;28.58;24.56;100785.34;5069307;28;1230;-12
2022/12/25 02:31:53;;;;;;;;;;;;;;;27.96;25.61;100775.69;5072685;28;1040;-12
2022/12/25 02:34:28;;;;;;;;;;;;;;;28.01;25.60;100777.81;5058811;28;1064;-12
2022/12/25 02:36:53;;;;;;;;;;;;;;;28.12;25.60;100779.22;5060515;28;1127;-12
2022/12/25 02:42:20;;;;;;;;;;;;;;;29.04;23.87;100781.47;5072671;28;1184;-12
2022/12/25 03:07:00;;;;;;;;;;;;;;;28.13;25.28;100807.91;5063852;28;1143;-12
2022/12/25 03:12:29;;;;;;;;;;;;;;;28.90;24.29;100818.38;5071656;28;1247;-12
2022/12/25 03:17:38;;;;;;;;;;;;;;;28.33;25.25;100816.31;5057721;28;1271;-12
2022/12/25 03:28:15;;;;;;;;;;;;;;;28.16;25.37;100818.34;5073685;28;1063;-12
2022/12/25 03:33:29;;;;;;;;;;;;;;;28.18;25.42;100805.50;5061088;28;1205;-12
2022/12/25 03:36:04;;;;;;;;;;;;;;;28.65;24.77;100816.03;5046629;28;913;-12
2022/12/25 04:36:39;;;;;;;;;;;;;;;26.64;23.59;100918.88;5063951;28;883;-12
2022/12/25 04:39:04;;;;;;;;;;;;;;;27.31;23.77;100927.44;5069910;28;1961;-12
2022/12/25 04:41:29;;;;;;;;;;;;;;;28.07;22.36;100925.81;5067950;28;1147;-12
2022/12/25 04:43:54;;;;;;;;;;;;;;;28.29;22.23;100925.91;5071774;28;1062;-12
2022/12/25 04:46:20;;;;;;;;;;;;;;;28.18;22.53;100919.09;5056731;28;1102;-12
2022/12/25 04:48:45;;;;;;;;;;;;;;;28.30;22.11;100924.03;5055931;28;1501;-12
2022/12/25 04:51:10;;;;;;;;;;;;;;;27.72;22.74;100928.19;5066575;28;1168;-12
2022/12/25 04:53:36;;;;;;;;;;;;;;;26.60;22.74;100933.72;5071761;28;1430;-12
2022/12/25 04:56:01;;;;;;;;;;;;;;;26.70;23.95;100933.50;5056698;28;1196;-12
2022/12/25 04:58:26;;;;;;;;;;;;;;;27.53;22.67;100934.91;5060473;28;1007;-12
2022/12/25 05:00:52;;;;;;;;;;;;;;;27.39;23.64;100940.06;5076143;28;1957;-12
2022/12/25 05:03:17;;;;;;;;;;;;;;;27.36;23.73;100945.84;5058983;28;1075;-12
2022/12/25 05:05:42;;;;;;;;;;;;;;;27.86;22.96;100956.28;5061960;28;1399;-12
2022/12/25 05:08:07;;;;;;;;;;;;;;;27.38;23.65;100958.13;5072103;28;1031;-12
2022/12/25 05:10:33;;;;;;;;;;;;;;;27.48;23.59;100949.78;5076277;28;852;-12
2022/12/25 05:12:58;;;;;;;;;;;;;;;27.23;24.16;100952.66;5073707;28;1535;-11
2022/12/25 05:15:23;;;;;;;;;;;;;;;28.32;22.66;100955.28;5068940;28;1944;-10
2022/12/25 05:17:49;;;;;;;;;;;;;;;28.47;22.84;100962.59;5066282;28;1154;-11
2022/12/25 05:20:14;;;;;;;;;;;;;;;27.50;23.81;100969.38;5058006;28;1883;-13
2022/12/25 05:22:40;;;;;;;;;;;;;;;27.02;24.54;100962.25;5063677;28;1155;-13
2022/12/25 05:25:06;;;;;;;;;;;;;;;27.26;24.23;100965.81;5075886;28;984;-12
2022/12/25 05:27:31;;;;;;;;;;;;;;;27.59;23.97;100972.00;5061638;28;1124;-12
2022/12/25 05:29:56;;;;;;;;;;;;;;;27.20;24.67;100977.31;5059755;28;1100;-12
2022/12/25 05:32:22;;;;;;;;;;;;;;;26.65;25.36;100977.22;5064895;28;1051;-12
2022/12/25 05:34:47;;;;;;;;;;;;;;;27.46;24.11;100978.84;5058850;28;1094;-12
2022/12/25 05:37:12;;;;;;;;;;;;;;;27.10;24.86;100979.41;5075405;28;1074;-12
2022/12/25 05:39:38;;;;;;;;;;;;;;;27.03;25.14;100990.06;5058704;28;1957;-12
2022/12/25 05:42:03;;;;;;;;;;;;;;;27.25;25.02;100985.75;5065703;28;1132;-12
2022/12/25 05:44:28;;;;;;;;;;;;;;;27.16;24.98;100985.97;5065201;28;1860;-12
2022/12/25 05:46:53;;;;;;;;;;;;;;;27.19;24.83;100996.41;5067689;28;1115;-12
2022/12/25 05:49:19;;;;;;;;;;;;;;;27.08;24.80;100995.78;5075728;28;1174;-12
2022/12/25 05:51:44;;;;;;;;;;;;;;;27.05;25.05;100995.28;5059536;28;1136;-12
2022/12/25 05:54:09;;;;;;;;;;;;;;;26.79;25.46;100999.94;5055448;28;1094;-12
2022/12/25 05:56:34;;;;;;;;;;;;;;;26.95;25.63;101003.56;5070994;28;1223;-12
2022/12/25 05:59:00;;;;;;;;;;;;;;;27.27;24.84;101004.47;5037310;28;1902;-13
2022/12/25 06:01:25;;;;;;;;;;;;;;;27.66;24.44;101007.25;5058944;28;1172;-13
2022/12/25 06:03:51;;;;;;;;;;;;;;;27.56;24.50;101010.19;5079031;28;992;-12
2022/12/25 06:06:16;;;;;;;;;;;;;;;27.35;24.97;101017.91;5065457;28;1035;-12
2022/12/25 06:08:42;;;;;;;;;;;;;;;27.47;24.85;101014.81;5079113;28;1108;-12
2022/12/25 06:11:07;;;;;;;;;;;;;;;27.42;24.69;101020.75;5078543;28;1055;-12
2022/12/25 06:13:32;;;;;;;;;;;;;;;27.28;24.61;101025.03;5078383;28;1075;-12
2022/12/25 06:15:58;;;;;;;;;;;;;;;27.47;24.91;101041.81;5059403;28;2090;-13
2022/12/25 06:18:23;;;;;;;;;;;;;;;26.89;25.48;101042.94;5058914;28;1059;-12
2022/12/25 06:20:49;;;;;;;;;;;;;;;26.98;25.40;101049.13;5073228;28;1918;-12
2022/12/25 06:23:14;;;;;;;;;;;;;;;27.79;24.52;101053.47;5058006;28;1000;-13
2022/12/25 06:25:39;;;;;;;;;;;;;;;28.03;23.89;101056.16;5072464;28;1035;-12
2022/12/25 06:28:05;;;;;;;;;;;;;;;27.55;24.66;101057.97;5071320;28;1012;-12
2022/12/25 06:30:30;;;;;;;;;;;;;;;27.35;24.60;101058.44;5047253;28;1091;-13
2022/12/25 06:32:56;;;;;;;;;;;;;;;27.37;24.95;101061.81;5065330;28;1198;-12
2022/12/25 06:35:21;;;;;;;;;;;;;;;27.20;25.10;101071.84;5064867;28;992;-12
2022/12/25 06:37:46;;;;;;;;;;;;;;;27.41;25.06;101066.84;5065299;28;1034;-12
2022/12/25 06:40:12;;;;;;;;;;;;;;;27.31;24.84;101070.59;5065203;28;1909;-12
2022/12/25 06:42:37;;;;;;;;;;;;;;;27.06;25.21;101078.00;5071534;28;1088;-12
2022/12/25 06:45:02;;;;;;;;;;;;;;;27.30;24.86;101077.03;5057676;28;1817;-13
2022/12/25 06:47:28;;;;;;;;;;;;;;;27.18;25.28;101084.69;5065183;28;1191;-12
2022/12/25 06:49:53;;;;;;;;;;;;;;;27.00;25.38;101087.59;5064511;28;987;-12
2022/12/25 06:52:18;;;;;;;;;;;;;;;26.98;25.74;101081.50;5078251;28;834;-12
2022/12/25 06:54:45;;;;;;;;;;;;;;;27.50;24.26;101095.50;5077670;28;1016;-12
2022/12/25 06:57:10;;;;;;;;;;;;;;;27.28;25.33;101089.03;5065504;28;1136;-12
2022/12/25 06:59:35;;;;;;;;;;;;;;;27.14;25.33;101094.16;5076729;28;1902;-12
2022/12/25 07:02:01;;;;;;;;;;;;;;;27.32;25.05;101099.31;5071031;28;1158;-12
2022/12/25 07:04:37;;;;;;;;;;;;;;;27.20;25.24;101100.72;5053133;28;1144;-12
2022/12/25 07:07:02;;;;;;;;;;;;;;;27.21;24.88;101108.63;5040373;28;1068;-12
2022/12/25 07:09:27;;;;;;;;;;;;;;;27.46;24.84;101113.91;5058044;28;1004;-12
2022/12/25 07:11:53;;;;;;;;;;;;;;;27.89;24.24;101107.31;5057406;28;1132;-12
2022/12/25 07:14:19;;;;;;;;;;;;;;;27.77;24.44;101116.84;5058070;28;1896;-12
2022/12/25 07:16:44;;;;;;;;;;;;;;;27.65;24.36;101114.50;5069734;28;1068;-12
2022/12/25 07:19:10;;;;;;;;;;;;;;;27.57;24.94;101115.41;5057783;28;1906;-12
2022/12/25 07:21:35;;;;;;;;;;;;;;;27.78;24.89;101110.41;5064979;28;977;-12
2022/12/25 07:24:00;;;;;;;;;;;;;;;27.83;24.33;101113.41;5076329;28;1052;-12
2022/12/25 07:26:26;;;;;;;;;;;;;;;27.89;24.28;101122.66;5057476;28;1055;-12
2022/12/25 07:28:51;;;;;;;;;;;;;;;27.82;24.49;101120.69;5070586;28;1032;-12
2022/12/25 07:31:16;;;;;;;;;;;;;;;27.34;25.26;101121.56;5057524;28;1036;-12
2022/12/25 07:33:42;;;;;;;;;;;;;;;27.68;24.95;101111.47;5071109;28;1215;-12
2022/12/25 07:36:07;;;;;;;;;;;;;;;27.88;24.71;101116.41;5069864;28;1147;-12
2022/12/25 07:38:33;;;;;;;;;;;;;;;27.98;24.45;101118.88;5065114;28;1004;-13
2022/12/25 07:40:58;;;;;;;;;;;;;;;28.27;24.16;101130.00;5076806;28;1910;-12
2022/12/25 07:43:24;;;;;;;;;;;;;;;27.96;24.61;101139.88;5076665;28;1243;-12
2022/12/25 07:45:56;;;;;;;;;;;;;;;28.17;23.98;101135.66;5074049;28;1835;-12
2022/12/25 07:48:21;;;;;;;;;;;;;;;28.05;24.51;101135.22;5070036;28;1223;-12
2022/12/25 07:50:46;;;;;;;;;;;;;;;27.67;25.14;101138.66;5070770;28;1132;-12
2022/12/25 07:53:12;;;;;;;;;;;;;;;28.51;24.04;101128.97;5068474;28;1151;-12
2022/12/25 07:55:37;;;;;;;;;;;;;;;28.55;23.78;101137.56;5076456;28;1135;-12
2022/12/25 07:58:02;;;;;;;;;;;;;;;28.27;24.36;101130.00;5076207;28;1124;-12
2022/12/25 08:00:31;;;;;;;;;;;;;;;28.15;24.63;101135.84;5073404;28;1906;-12
2022/12/25 08:02:56;;;;;;;;;;;;;;;28.80;23.66;101145.44;5054304;28;1194;-12
2022/12/25 08:05:22;;;;;;;;;;;;;;;28.50;24.06;101150.78;5076127;28;1035;-12
2022/12/25 08:07:50;;;;;;;;;;;;;;;28.27;24.74;101152.47;5064569;28;964;-12
2022/12/25 08:10:15;;;;;;;;;;;;;;;28.51;24.16;101150.63;5062199;28;1031;-12
2022/12/25 08:12:40;;;;;;;;;;;;;;;28.50;24.29;101151.66;5068417;28;1065;-12
2022/12/25 08:15:06;;;;;;;;;;;;;;;28.51;24.11;101147.91;5068004;28;1801;-12
2022/12/25 08:17:33;;;;;;;;;;;;;;;28.34;24.53;101144.53;5076164;28;1314;-12
2022/12/25 08:19:58;;;;;;;;;;;;;;;28.96;23.89;101139.03;5076196;28;1913;-12
2022/12/25 08:22:23;;;;;;;;;;;;;;;29.41;23.28;101149.03;5076194;28;1025;-12
2022/12/25 08:24:49;;;;;;;;;;;;;;;28.88;24.04;101160.78;5068432;28;903;-12
2022/12/25 08:27:14;;;;;;;;;;;;;;;28.36;24.87;101164.94;5057245;28;972;-12
2022/12/25 08:29:39;;;;;;;;;;;;;;;28.56;24.73;101167.16;5075436;28;1281;-12
2022/12/25 08:32:04;;;;;;;;;;;;;;;28.64;24.61;101179.78;5076058;28;1250;-12
2022/12/25 08:34:30;;;;;;;;;;;;;;;28.71;24.62;101179.91;5076374;28;1067;-12
2022/12/25 08:36:55;;;;;;;;;;;;;;;28.79;24.72;101177.09;5066798;28;1066;-12
2022/12/25 08:39:20;;;;;;;;;;;;;;;28.65;24.58;101183.31;5056172;28;1906;-12
2022/12/25 08:41:45;;;;;;;;;;;;;;;28.56;24.80;101179.84;5071178;28;1152;-12
2022/12/25 08:44:11;;;;;;;;;;;;;;;28.38;25.50;101172.88;5071112;28;1936;-12
2022/12/25 08:46:38;;;;;;;;;;;;;;;28.75;24.73;101169.50;5062081;28;1119;-12
2022/12/25 08:49:03;;;;;;;;;;;;;;;28.54;25.20;101177.34;5062748;28;1015;-12
2022/12/25 08:51:29;;;;;;;;;;;;;;;28.47;25.27;101176.38;5075152;28;1020;-12
2022/12/25 08:53:56;;;;;;;;;;;;;;;27.17;27.23;101180.22;5076110;28;1079;-12
2022/12/25 08:56:22;;;;;;;;;;;;;;;28.17;25.72;101170.81;5075604;28;1035;-12
2022/12/25 08:58:47;;;;;;;;;;;;;;;28.49;25.39;101174.34;5062761;28;1084;-11
2022/12/25 09:01:12;;;;;;;;;;;;;;;28.50;25.57;101159.75;5062078;28;1902;-12
2022/12/25 09:03:38;;;;;;;;;;;;;;;28.05;26.05;101157.72;5075714;28;1059;-12
2022/12/25 09:06:04;;;;;;;;;;;;;;;28.07;25.08;101158.38;5056031;28;1462;-12
2022/12/25 09:08:30;;;;;;;;;;;;;;;28.22;25.07;101165.72;5056177;28;1095;-12
2022/12/25 09:10:55;;;;;;;;;;;;;;;28.12;25.27;101165.94;5068825;28;984;-12
2022/12/25 09:13:20;;;;;;;;;;;;;;;28.23;25.45;101156.56;5068749;28;1151;-12
2022/12/25 09:15:45;;;;;;;;;;;;;;;28.51;24.93;101158.72;5064135;28;1828;-12
2022/12/25 09:18:11;;;;;;;;;;;;;;;28.51;24.71;101166.03;5075797;28;1256;-12
2022/12/25 09:20:36;;;;;;;;;;;;;;;28.12;25.25;101155.13;5062203;28;1981;-12
2022/12/25 09:23:01;;;;;;;;;;;;;;;28.63;24.71;101158.31;5062629;28;1210;-12
2022/12/25 09:25:27;;;;;;;;;;;;;;;28.46;24.70;101162.00;5057072;28;1068;-12
2022/12/25 09:27:52;;;;;;;;;;;;;;;28.47;24.58;101165.53;5072547;28;1042;-12
2022/12/25 09:30:17;;;;;;;;;;;;;;;28.54;24.71;101163.81;5074931;28;1127;-12
2022/12/25 09:32:42;;;;;;;;;;;;;;;28.43;24.59;101162.34;5075523;28;1218;-12
2022/12/25 09:35:08;;;;;;;;;;;;;;;28.17;24.78;101160.84;5074880;28;1246;-12
2022/12/25 09:37:33;;;;;;;;;;;;;;;28.09;25.08;101158.19;5077114;28;1361;-12
2022/12/25 09:39:58;;;;;;;;;;;;;;;28.30;24.64;101156.69;5079113;28;1902;-12
2022/12/25 09:42:24;;;;;;;;;;;;;;;28.42;24.62;101157.13;5079381;28;1247;-12
2022/12/25 09:45:19;;;;;;;;;;;;;;;28.20;25.25;101155.06;5079395;28;2200;-12
2022/12/25 09:47:44;;;;;;;;;;;;;;;28.44;24.56;101152.38;5061414;28;1426;-12
2022/12/25 09:50:15;;;;;;;;;;;;;;;28.56;24.39;101155.50;5060745;28;1122;-12
2022/12/25 09:52:51;;;;;;;;;;;;;;;28.65;24.34;101150.81;5052108;28;1012;-12
2022/12/25 09:55:18;;;;;;;;;;;;;;;28.67;24.59;101151.50;5056001;28;1078;-12
2022/12/25 09:57:44;;;;;;;;;;;;;;;28.63;24.36;101152.91;5061500;28;1068;-12
2022/12/25 10:00:16;;;;;;;;;;;;;;;28.58;24.68;101148.00;5065838;28;1914;-12
2022/12/25 10:03:00;;;;;;;;;;;;;;;28.54;25.10;101152.97;5048251;28;932;-12
2022/12/25 10:05:34;;;;;;;;;;;;;;;28.65;24.49;101146.25;5072903;28;1049;-12
2022/12/25 10:08:05;;;;;;;;;;;;;;;28.63;24.31;101142.91;5076886;28;1204;-12
2022/12/25 10:10:36;;;;;;;;;;;;;;;28.23;24.82;101137.63;5065296;28;1023;-12
2022/12/25 10:13:05;;;;;;;;;;;;;;;28.55;24.47;101146.53;5047115;28;1168;-12
2022/12/25 10:15:32;;;;;;;;;;;;;;;28.62;24.38;101140.38;5048009;28;2056;-12
2022/12/25 10:18:14;;;;;;;;;;;;;;;28.55;24.65;101142.97;5047269;28;1114;-12
2022/12/25 10:20:41;;;;;;;;;;;;;;;28.56;24.61;101136.56;5051675;28;1906;-12
2022/12/25 10:23:14;;;;;;;;;;;;;;;28.38;24.73;101151.22;5060738;28;1281;-12
2022/12/25 10:25:40;;;;;;;;;;;;;;;28.36;24.73;101147.91;5048278;28;822;-12
2022/12/25 10:28:10;;;;;;;;;;;;;;;28.38;24.81;101151.22;5060047;28;1122;-12
2022/12/25 10:30:36;;;;;;;;;;;;;;;28.30;25.22;101152.13;5078425;28;1271;-11
2022/12/25 10:33:01;;;;;;;;;;;;;;;28.38;25.02;101159.34;5060246;28;1252;-12
2022/12/25 10:35:26;;;;;;;;;;;;;;;28.38;24.88;101158.53;5060048;28;1035;-11
2022/12/25 10:38:02;;;;;;;;;;;;;;;28.38;25.13;101153.94;5052154;28;1032;-11
2022/12/25 10:40:27;;;;;;;;;;;;;;;28.14;25.32;101152.25;5065060;28;1961;-11
2022/12/25 10:43:05;;;;;;;;;;;;;;;28.35;24.97;101155.16;5064888;28;1202;-11
2022/12/25 10:45:40;;;;;;;;;;;;;;;28.49;24.75;101158.09;5040383;28;2100;-12
2022/12/25 10:48:06;;;;;;;;;;;;;;;28.36;24.97;101156.00;5061119;28;993;-12
2022/12/25 10:50:32;;;;;;;;;;;;;;;28.44;25.00;101155.94;5056109;28;865;-12
2022/12/25 10:53:03;;;;;;;;;;;;;;;28.42;24.65;101157.13;5071206;28;1039;-12
2022/12/25 10:55:28;;;;;;;;;;;;;;;28.28;24.97;101150.63;5068056;28;1089;-12
2022/12/25 10:57:54;;;;;;;;;;;;;;;27.77;25.64;101157.38;5061213;28;1184;-12
2022/12/25 11:00:26;;;;;;;;;;;;;;;28.21;25.00;101159.44;5068324;28;1902;-12
2022/12/25 11:02:51;;;;;;;;;;;;;;;28.24;25.36;101161.78;5059757;28;1123;-12
2022/12/25 11:05:22;;;;;;;;;;;;;;;28.09;25.25;101161.72;5040051;28;1095;-12
2022/12/25 11:07:54;;;;;;;;;;;;;;;28.33;24.69;101168.03;5077727;28;1042;-12
2022/12/25 11:10:27;;;;;;;;;;;;;;;28.43;24.64;101170.47;5065249;28;1039;-12
2022/12/25 11:12:53;;;;;;;;;;;;;;;28.35;24.98;101167.84;5051870;28;990;-12
2022/12/25 11:15:37;;;;;;;;;;;;;;;28.43;24.76;101178.59;5073085;28;1812;-11
2022/12/25 11:18:03;;;;;;;;;;;;;;;28.41;24.59;101177.09;5076595;28;1231;-11
2022/12/25 11:20:29;;;;;;;;;;;;;;;28.47;24.46;101171.81;5059072;28;1973;-12
2022/12/25 11:22:54;;;;;;;;;;;;;;;28.33;24.56;101168.03;5077391;28;1302;-11
2022/12/25 11:25:24;;;;;;;;;;;;;;;28.51;24.58;101171.44;5076672;28;1305;-11
2022/12/25 11:27:56;;;;;;;;;;;;;;;28.61;23.97;101169.31;5064536;28;1151;-12
2022/12/25 11:30:21;;;;;;;;;;;;;;;28.43;24.91;101175.03;5076890;28;1223;-12
2022/12/25 11:32:47;;;;;;;;;;;;;;;28.06;25.30;101185.59;5076933;28;1263;-11
2022/12/25 11:35:13;;;;;;;;;;;;;;;28.57;24.21;101187.78;5059853;28;1294;-12
2022/12/25 11:37:47;;;;;;;;;;;;;;;28.82;24.10;101176.75;5073886;28;1095;-12
2022/12/25 11:40:18;;;;;;;;;;;;;;;28.70;24.41;101184.47;5077460;28;1914;-12
2022/12/25 11:42:48;;;;;;;;;;;;;;;28.81;23.68;101187.75;5076969;28;1183;-12
2022/12/25 11:45:17;;;;;;;;;;;;;;;29.01;23.87;101189.97;5074698;28;1797;-12
2022/12/25 11:47:50;;;;;;;;;;;;;;;29.00;23.57;101191.81;5059170;28;1262;-12
2022/12/25 11:50:22;;;;;;;;;;;;;;;29.11;23.70;101182.41;5074973;28;1293;-11
2022/12/25 11:52:47;;;;;;;;;;;;;;;29.03;23.71;101194.16;5076583;28;1183;-12
2022/12/25 11:55:15;;;;;;;;;;;;;;;29.00;23.43;101185.53;5076365;28;1215;-12
2022/12/25 11:57:41;;;;;;;;;;;;;;;28.92;23.95;101191.88;5058774;28;1140;-12
2022/12/25 12:00:08;;;;;;;;;;;;;;;28.85;23.81;101206.16;5058803;28;1906;-12
2022/12/25 12:02:37;;;;;;;;;;;;;;;28.52;24.29;101202.88;5063397;28;1116;-12
2022/12/25 12:05:21;;;;;;;;;;;;;;;28.18;25.27;101208.50;5076454;28;993;-12
2022/12/25 12:08:04;;;;;;;;;;;;;;;28.40;24.32;101218.69;5065433;28;1015;-12
2022/12/25 12:10:29;;;;;;;;;;;;;;;28.19;24.84;101212.06;5076543;28;1119;-12
2022/12/25 12:12:55;;;;;;;;;;;;;;;28.41;24.26;101215.00;5069157;28;1021;-12
2022/12/25 12:15:28;;;;;;;;;;;;;;;28.38;24.32;101212.66;5074595;28;1761;-12
2022/12/25 12:17:53;;;;;;;;;;;;;;;27.96;25.06;101218.28;5045035;28;1108;-12
2022/12/25 12:20:32;;;;;;;;;;;;;;;28.31;24.36;101216.00;5068342;28;1968;-12
2022/12/25 12:22:57;;;;;;;;;;;;;;;28.28;24.29;101213.69;5072332;28;1175;-12
2022/12/25 12:25:23;;;;;;;;;;;;;;;27.41;25.74;101223.56;5064911;28;1061;-12
2022/12/25 12:27:52;;;;;;;;;;;;;;;28.06;24.95;101218.06;5059055;28;902;-12
2022/12/25 12:30:36;;;;;;;;;;;;;;;28.25;24.65;101222.16;5039020;28;1013;-12
2022/12/25 12:33:02;;;;;;;;;;;;;;;28.04;25.25;101229.06;5069880;28;1055;-12
2022/12/25 12:35:28;;;;;;;;;;;;;;;28.28;24.60;101224.50;5049729;28;1060;-12
2022/12/25 12:37:58;;;;;;;;;;;;;;;28.17;24.32;101223.06;5075431;28;1100;-12
2022/12/25 12:40:26;;;;;;;;;;;;;;;28.51;23.89;101229.09;5076205;28;1963;-12
2022/12/25 12:42:52;;;;;;;;;;;;;;;28.22;24.47;101234.19;5070716;28;1095;-11
2022/12/25 12:45:27;;;;;;;;;;;;;;;27.79;25.16;101231.88;5069603;28;2070;-12
2022/12/25 12:47:53;;;;;;;;;;;;;;;28.16;24.37;101234.06;5064021;28;1104;-12
2022/12/25 12:50:24;;;;;;;;;;;;;;;28.10;24.42;101233.75;5069078;28;1198;-11
2022/12/25 12:52:50;;;;;;;;;;;;;;;27.84;25.00;101237.56;5076114;28;1012;-12
2022/12/25 12:55:15;;;;;;;;;;;;;;;28.09;24.80;101248.28;5061679;28;1079;-12
2022/12/25 12:57:41;;;;;;;;;;;;;;;28.02;24.50;101227.53;5063434;28;1166;-12
2022/12/25 13:00:08;;;;;;;;;;;;;;;28.08;24.68;101253.84;5061534;28;1897;-11
2022/12/25 13:02:43;;;;;;;;;;;;;;;28.06;24.31;101254.03;5062704;28;1035;-12
2022/12/25 13:05:11;;;;;;;;;;;;;;;27.59;25.34;101251.16;5054653;28;972;-12
2022/12/25 13:07:55;;;;;;;;;;;;;;;28.07;24.76;101258.44;5064597;28;1109;-12
2022/12/25 13:10:22;;;;;;;;;;;;;;;28.03;24.69;101253.56;5075479;28;1079;-12
2022/12/25 13:12:55;;;;;;;;;;;;;;;27.20;26.04;101257.34;5061869;28;1065;-12
2022/12/25 13:15:21;;;;;;;;;;;;;;;28.00;24.44;101270.97;5069825;28;1840;-11
2022/12/25 13:17:47;;;;;;;;;;;;;;;27.97;24.77;101277.59;5055107;28;1182;-12
2022/12/25 13:20:23;;;;;;;;;;;;;;;27.68;25.04;101280.88;5042877;28;1973;-12
2022/12/25 13:22:48;;;;;;;;;;;;;;;27.93;24.48;101292.47;5073556;28;1120;-12
2022/12/25 13:25:17;;;;;;;;;;;;;;;27.42;25.38;101284.66;5070447;28;1138;-12
2022/12/25 13:27:42;;;;;;;;;;;;;;;28.02;24.76;101287.03;5056900;28;1020;-11
2022/12/25 13:30:14;;;;;;;;;;;;;;;27.93;24.17;101280.81;5068768;28;1068;-12
2022/12/25 13:32:40;;;;;;;;;;;;;;;27.22;25.69;101291.28;5041799;28;1376;-12
2022/12/25 13:35:10;;;;;;;;;;;;;;;27.68;24.85;101294.38;5059539;28;1012;-12
2022/12/25 13:37:35;;;;;;;;;;;;;;;27.86;24.57;101303.13;5065798;28;1099;-12
2022/12/25 13:40:02;;;;;;;;;;;;;;;27.64;25.27;101307.41;5066093;28;1948;-12
2022/12/25 13:42:29;;;;;;;;;;;;;;;27.90;24.72;101309.03;5065837;28;992;-12
2022/12/25 13:44:58;;;;;;;;;;;;;;;27.90;24.73;101310.91;5059229;28;1956;-12
2022/12/25 13:47:26;;;;;;;;;;;;;;;27.00;26.10;101306.28;5059652;28;1123;-12
2022/12/25 13:49:53;;;;;;;;;;;;;;;27.81;24.79;101310.94;5072567;28;1008;-11
2022/12/25 13:52:20;;;;;;;;;;;;;;;27.90;24.93;101310.91;5048294;28;804;-11
2022/12/25 13:54:54;;;;;;;;;;;;;;;27.58;25.42;101317.03;5078959;28;995;-12
2022/12/25 13:57:20;;;;;;;;;;;;;;;27.78;24.58;101315.88;5071556;28;1091;-12
2022/12/25 13:59:45;;;;;;;;;;;;;;;27.67;24.84;101320.59;5072302;28;1898;-11
2022/12/25 14:02:17;;;;;;;;;;;;;;;26.99;25.92;101320.81;5073697;28;1152;-11
2022/12/25 14:04:43;;;;;;;;;;;;;;;27.61;25.07;101329.38;5078773;28;1301;-12
2022/12/25 14:07:08;;;;;;;;;;;;;;;27.77;24.59;101331.22;5078473;28;1301;-11
2022/12/25 14:09:34;;;;;;;;;;;;;;;27.57;25.43;101331.59;5074343;28;1227;-12
2022/12/25 14:11:59;;;;;;;;;;;;;;;27.68;24.73;101340.31;5049165;28;1016;-12
2022/12/25 14:14:24;;;;;;;;;;;;;;;27.82;25.15;101347.78;5043189;28;2013;-12
2022/12/25 14:16:52;;;;;;;;;;;;;;;27.80;25.00;101348.94;5058513;28;1075;-12
2022/12/25 14:19:25;;;;;;;;;;;;;;;27.93;24.71;101351.97;5054512;28;1914;-12
2022/12/25 14:21:52;;;;;;;;;;;;;;;27.73;25.21;101346.09;5061655;28;1100;-12
2022/12/25 14:24:17;;;;;;;;;;;;;;;27.48;25.72;101354.22;5073062;28;1313;-12
2022/12/25 14:26:43;;;;;;;;;;;;;;;27.67;25.52;101361.13;5061787;28;1012;-12
2022/12/25 14:29:09;;;;;;;;;;;;;;;27.68;25.33;101361.94;5040919;28;1008;-12
2022/12/25 14:31:34;;;;;;;;;;;;;;;27.72;25.26;101366.91;5073928;28;1131;-12